Time;durP1;ratioP1;P1;durP2;ratioP2;P2;SDS_P1;SDS_P2;PMS_P1;PMS_P2;Temp;Humidity;BMP_temperature;BMP_pressure;BME280_temperature;BME280_humidity;BME280_pressure;Samples;Min_cycle;Max_cycle;Signal;HPM_P1;HPM_P2
2023/10/08 02:43:08;;;;;;;3.83;1.45;;;19.10;59.10;;;;;;5049496;28;20067;-69
2023/10/08 02:45:39;;;;;;;3.80;1.52;;;19.20;59.40;;;;;;5046872;28;20503;-70
2023/10/08 02:48:11;;;;;;;5.90;1.42;;;19.20;59.80;;;;;;5054291;28;20064;-70
2023/10/08 02:50:42;;;;;;;6.10;1.48;;;19.20;59.40;;;;;;5054224;28;20045;-70
2023/10/08 02:53:13;;;;;;;3.72;1.45;;;19.20;59.50;;;;;;5054271;28;20067;-70
2023/10/08 02:55:44;;;;;;;4.95;1.55;;;19.20;59.30;;;;;;5054416;28;20055;-70
2023/10/08 02:58:15;;;;;;;5.28;1.65;;;19.10;59.80;;;;;;5021240;28;20029;-69
2023/10/08 03:00:48;;;;;;;6.50;1.30;;;19.10;60.70;;;;;;5054327;28;20430;-69
2023/10/08 03:03:18;;;;;;;5.05;1.50;;;19.00;60.70;;;;;;5054207;28;20065;-70
2023/10/08 03:05:50;;;;;;;4.43;1.40;;;19.00;60.10;;;;;;5030351;28;20486;-68
2023/10/08 03:08:21;;;;;;;5.45;1.30;;;19.00;60.50;;;;;;5030937;28;20646;-68
2023/10/08 03:10:48;;;;;;;5.25;1.30;;;19.00;60.80;;;;;;5031557;28;20166;-68
2023/10/08 03:13:19;;;;;;;7.30;1.50;;;19.10;60.90;;;;;;5049751;28;20037;-68
2023/10/08 03:15:57;;;;;;;3.15;1.63;;;19.00;59.80;;;;;;5051109;28;20588;-69
2023/10/08 03:18:25;;;;;;;2.67;1.10;;;19.00;60.20;;;;;;5051062;28;20041;-69
2023/10/08 03:20:52;;;;;;;4.20;1.38;;;19.00;60.20;;;;;;5051206;28;20104;-69
2023/10/08 03:26:00;;;;;;;3.40;1.23;;;19.10;60.40;;;;;;5049194;28;20083;-69
2023/10/08 03:28:29;;;;;;;6.70;1.75;;;19.10;60.40;;;;;;5051155;28;20101;-68
2023/10/08 03:31:04;;;;;;;6.53;1.80;;;19.00;62.10;;;;;;5033221;28;20037;-68
2023/10/08 03:33:37;;;;;;;3.25;1.27;;;19.00;61.30;;;;;;5034136;28;20045;-69
2023/10/08 03:36:34;;;;;;;3.20;1.38;;;19.00;60.20;;;;;;5051207;28;20067;-70
2023/10/08 03:39:11;;;;;;;4.32;1.13;;;19.00;60.70;;;;;;5051041;28;20037;-70
2023/10/08 03:41:40;;;;;;;3.45;1.20;;;19.00;59.90;;;;;;5050437;28;20060;-69
2023/10/08 03:44:13;;;;;;;5.05;1.13;;;19.00;58.50;;;;;;5050132;28;20049;-70
2023/10/08 03:46:42;;;;;;;2.78;1.30;;;19.00;58.70;;;;;;5051165;28;20113;-69
2023/10/08 03:51:53;;;;;;;7.13;1.52;;;18.90;58.20;;;;;;5050679;28;20033;-70
2023/10/08 03:54:33;;;;;;;3.80;1.02;;;18.90;58.70;;;;;;5049129;28;20041;-71
2023/10/08 03:57:01;;;;;;;4.45;1.20;;;18.90;59.20;;;;;;5050652;28;20041;-69
2023/10/08 03:59:31;;;;;;;2.50;1.10;;;18.90;59.60;;;;;;5032837;28;20562;-68
2023/10/08 04:02:14;;;;;;;4.63;1.52;;;18.90;60.80;;;;;;5033502;28;20036;-67
2023/10/08 04:04:57;;;;;;;2.80;1.15;;;18.90;60.60;;;;;;5034378;28;20045;-67
2023/10/08 04:07:38;;;;;;;3.97;1.40;;;18.90;61.00;;;;;;5050130;28;20498;-66
2023/10/08 04:12:39;;;;;;;3.47;1.20;;;19.00;60.80;;;;;;5049838;28;20196;-70
2023/10/08 04:15:07;;;;;;;4.95;1.50;;;18.90;60.10;;;;;;5049861;28;20045;-72
2023/10/08 04:17:50;;;;;;;4.07;1.30;;;18.90;60.40;;;;;;5032333;28;20021;-71
2023/10/08 04:20:33;;;;;;;3.63;1.23;;;18.80;60.70;;;;;;5049753;28;20658;-71
2023/10/08 04:23:01;;;;;;;4.35;1.05;;;18.80;60.70;;;;;;5049973;28;20049;-70
2023/10/08 04:25:32;;;;;;;4.47;1.40;;;18.80;61.90;;;;;;5030914;28;20031;-70
2023/10/08 04:28:00;;;;;;;4.55;1.20;;;18.80;61.50;;;;;;5031984;28;20494;-70
2023/10/08 04:30:33;;;;;;;2.05;1.20;;;18.80;62.30;;;;;;5031979;28;20052;-71
2023/10/08 04:33:07;;;;;;;3.50;0.95;;;18.80;62.20;;;;;;5033260;28;20025;-70
2023/10/08 04:35:55;;;;;;;4.30;1.10;;;18.70;62.20;;;;;;5049989;28;20055;-71
2023/10/08 04:38:28;;;;;;;4.57;1.15;;;18.80;62.00;;;;;;5050221;28;20479;-70
2023/10/08 09:53:07;;;;;;;3.40;1.27;;;17.30;63.80;;;;;;5065559;28;20166;-70
2023/10/08 09:55:35;;;;;;;7.43;1.45;;;17.40;64.20;;;;;;5044022;28;20135;-70
2023/10/08 09:58:02;;;;;;;4.88;1.20;;;17.40;64.40;;;;;;5035076;28;20038;-70
2023/10/08 10:00:30;;;;;;;4.80;1.30;;;17.30;64.10;;;;;;5018558;28;20033;-70
2023/10/08 10:03:03;;;;;;;6.07;1.30;;;17.30;64.20;;;;;;5035133;28;20061;-69
2023/10/08 10:05:35;;;;;;;9.23;1.42;;;17.40;64.30;;;;;;5026203;28;20494;-69
2023/10/08 10:08:09;;;;;;;4.43;1.30;;;17.40;63.60;;;;;;5071815;28;20124;-70
2023/10/08 10:10:43;;;;;;;3.55;1.35;;;17.40;63.60;;;;;;5047583;28;20499;-70
2023/10/08 10:13:13;;;;;;;4.97;1.30;;;17.30;63.50;;;;;;5035705;28;20033;-71
2023/10/08 10:15:42;;;;;;;;;;;17.30;63.80;;;;;;5070668;28;20495;-71
2023/10/08 10:18:25;;;;;;;3.88;1.30;;;17.30;64.10;;;;;;5072640;28;19919;-70
2023/10/08 10:21:02;;;;;;;4.13;0.98;;;17.30;64.10;;;;;;5072251;28;20099;-70
2023/10/08 10:23:45;;;;;;;7.93;1.55;;;17.30;64.00;;;;;;5053104;28;20104;-70
2023/10/08 10:26:30;;;;;;;3.50;1.45;;;17.30;64.10;;;;;;5060935;28;20041;-69
2023/10/08 10:29:09;;;;;;;3.45;1.40;;;17.30;63.90;;;;;;5071952;28;20106;-69
2023/10/08 10:31:44;;;;;;;3.17;1.30;;;17.30;64.00;;;;;;5058981;28;20090;-69
2023/10/08 10:34:12;;;;;;;3.58;1.20;;;17.30;63.90;;;;;;5064372;28;20036;-70
2023/10/08 10:36:41;;;;;;;3.17;1.33;;;17.30;63.70;;;;;;5070989;28;20079;-72
2023/10/08 10:39:26;;;;;;;3.88;1.20;;;17.20;63.70;;;;;;5071948;28;20375;-70
2023/10/08 10:42:20;;;;;;;5.93;1.48;;;17.30;63.90;;;;;;5056208;28;20086;-69
2023/10/08 10:44:50;;;;;;;2.40;1.00;;;17.30;64.10;;;;;;5055657;28;20043;-69
